Maregas — HP3584 — position and weather

sailwx.info

Track history (hours):
 
Tides and Currents Weather Stations Pressure Air Temp Water Temp Dewpoint Dewpoint Depression Visibility Wind Speed Wind Dir Waves Ship Positions

Maregas

Last reported at 2018-Feb-19 15:02 UTC. Time now 2018-Feb-19 20:27 UTC.
Position N 30°13' W 093°15'.

Length 99 m; draft 5 m.

Type: Ship (hazmat cat D). MMSI: 357078000.

Date/timePositionNaut miles runAvg speedWind from/ knotsBaromVisibWave heightAir tempDewpointWater temp
2018-Feb-19 15:02N 30°13' W 093°15'0 0.0
2018-Feb-19 14:14N 30°13' W 093°15'0 0.0
2018-Feb-19 13:44N 30°13' W 093°15'0 0.0
2018-Feb-19 13:20N 30°13' W 093°15'0 0.0
2018-Feb-19 12:44N 30°13' W 093°15'0 0.0
2018-Feb-19 12:20N 30°13' W 093°15'0 0.0
2018-Feb-19 11:56N 30°13' W 093°15'0 0.0
2018-Feb-19 11:20N 30°13' W 093°15'0 0.0
2018-Feb-19 10:44N 30°13' W 093°15'0 0.0
2018-Feb-19 10:20N 30°13' W 093°15'0 0.0
2018-Feb-19 09:14N 30°13' W 093°15'0 0.0
2018-Feb-19 08:56N 30°13' W 093°15'0 0.0
2018-Feb-19 08:20N 30°13' W 093°15'0 0.0
2018-Feb-19 07:56N 30°13' W 093°15'0 0.0
2018-Feb-19 07:26N 30°13' W 093°15'0 0.0
2018-Feb-19 06:56N 30°13' W 093°15'0 0.0
2018-Feb-19 06:26N 30°13' W 093°15'0 0.0
2018-Feb-19 05:50N 30°13' W 093°15'0 0.0
2018-Feb-19 05:26N 30°13' W 093°15'0 0.0
2018-Feb-19 04:44N 30°13' W 093°15'0 0.0
2018-Feb-19 04:26N 30°13' W 093°15'0 0.0
2018-Feb-19 03:56N 30°13' W 093°15'0 0.0
2018-Feb-19 03:26N 30°13' W 093°15'0 0.0
2018-Feb-19 02:56N 30°13' W 093°15'0 0.0
2018-Feb-19 02:26N 30°13' W 093°15'0 0.0
2018-Feb-19 01:56N 30°13' W 093°15'0 0.0
2018-Feb-19 01:26N 30°13' W 093°15'0 0.0
2018-Feb-19 00:56N 30°13' W 093°15'0 0.0
2018-Feb-19 00:20N 30°13' W 093°15'0 0.0
2018-Feb-18 23:56N 30°13' W 093°15'0 0.0
2018-Feb-18 23:26N 30°13' W 093°15'0 0.0
2018-Feb-18 22:56N 30°13' W 093°15'0 0.0
2018-Feb-18 22:26N 30°13' W 093°15'0 0.0
2018-Feb-18 21:56N 30°13' W 093°15'0 0.0
2018-Feb-18 21:14N 30°13' W 093°15'0 0.0
2018-Feb-18 20:56N 30°13' W 093°15'0 0.0
2018-Feb-18 20:30N 30°13' W 093°15'0 0.3
2018-Feb-18 20:01N 30°13' W 093°15'2 4.2
2018-Feb-18 19:31N 30°12' W 093°17'4 8.1
2018-Feb-18 19:01N 30°09' W 093°20'5 9.3
2018-Feb-18 18:30N 30°04' W 093°20'5 9.9
2018-Feb-18 18:00N 29°59' W 093°20'510.7
2018-Feb-18 17:30N 29°54' W 093°21'510.2
2018-Feb-18 17:00N 29°49' W 093°21'13 1.9
2018-Feb-18 10:03N 29°37' W 093°14'0 0.2
2018-Feb-18 10:00N 29°37' W 093°14'0 0.0
2018-Feb-18 09:30N 29°37' W 093°14'  
Track history (hours):
 
Tides and Currents Weather Stations Pressure Air Temp Water Temp Dewpoint Dewpoint Depression Visibility Wind Speed Wind Dir Waves Ship Positions

Maregas

Last reported at 2018-Feb-19 15:02 UTC. Time now 2018-Feb-19 20:27 UTC.
Position N 30°13' W 093°15'.

Length 99 m; draft 5 m.

Type: Ship (hazmat cat D). MMSI: 357078000.

Date/timePositionNaut miles runAvg speedWind from/ knotsBaromVisibWave heightAir tempDewpointWater temp
2018-Feb-19 15:02N 30°13' W 093°15'0 0.0
2018-Feb-19 14:14N 30°13' W 093°15'0 0.0
2018-Feb-19 13:44N 30°13' W 093°15'0 0.0
2018-Feb-19 13:20N 30°13' W 093°15'0 0.0
2018-Feb-19 12:44N 30°13' W 093°15'0 0.0
2018-Feb-19 12:20N 30°13' W 093°15'0 0.0
2018-Feb-19 11:56N 30°13' W 093°15'0 0.0
2018-Feb-19 11:20N 30°13' W 093°15'0 0.0
2018-Feb-19 10:44N 30°13' W 093°15'0 0.0
2018-Feb-19 10:20N 30°13' W 093°15'0 0.0
2018-Feb-19 09:14N 30°13' W 093°15'0 0.0
2018-Feb-19 08:56N 30°13' W 093°15'0 0.0
2018-Feb-19 08:20N 30°13' W 093°15'0 0.0
2018-Feb-19 07:56N 30°13' W 093°15'0 0.0
2018-Feb-19 07:26N 30°13' W 093°15'0 0.0
2018-Feb-19 06:56N 30°13' W 093°15'0 0.0
2018-Feb-19 06:26N 30°13' W 093°15'0 0.0
2018-Feb-19 05:50N 30°13' W 093°15'0 0.0
2018-Feb-19 05:26N 30°13' W 093°15'0 0.0
2018-Feb-19 04:44N 30°13' W 093°15'0 0.0
2018-Feb-19 04:26N 30°13' W 093°15'0 0.0
2018-Feb-19 03:56N 30°13' W 093°15'0 0.0
2018-Feb-19 03:26N 30°13' W 093°15'0 0.0
2018-Feb-19 02:56N 30°13' W 093°15'0 0.0
2018-Feb-19 02:26N 30°13' W 093°15'0 0.0
2018-Feb-19 01:56N 30°13' W 093°15'0 0.0
2018-Feb-19 01:26N 30°13' W 093°15'0 0.0
2018-Feb-19 00:56N 30°13' W 093°15'0 0.0
2018-Feb-19 00:20N 30°13' W 093°15'0 0.0
2018-Feb-18 23:56N 30°13' W 093°15'0 0.0
2018-Feb-18 23:26N 30°13' W 093°15'0 0.0
2018-Feb-18 22:56N 30°13' W 093°15'0 0.0
2018-Feb-18 22:26N 30°13' W 093°15'0 0.0
2018-Feb-18 21:56N 30°13' W 093°15'0 0.0
2018-Feb-18 21:14N 30°13' W 093°15'0 0.0
2018-Feb-18 20:56N 30°13' W 093°15'0 0.0
2018-Feb-18 20:30N 30°13' W 093°15'0 0.3
2018-Feb-18 20:01N 30°13' W 093°15'2 4.2
2018-Feb-18 19:31N 30°12' W 093°17'4 8.1
2018-Feb-18 19:01N 30°09' W 093°20'5 9.3
2018-Feb-18 18:30N 30°04' W 093°20'5 9.9
2018-Feb-18 18:00N 29°59' W 093°20'510.7
2018-Feb-18 17:30N 29°54' W 093°21'510.2
2018-Feb-18 17:00N 29°49' W 093°21'13 1.9
2018-Feb-18 10:03N 29°37' W 093°14'0 0.2
2018-Feb-18 10:00N 29°37' W 093°14'0 0.0
2018-Feb-18 09:30N 29°37' W 093°14'  

Dump ship's entire track history